Casper, WY

11:21 PM MDT on July 24, 2016 (GMT -0600)
Casper Mountain Foothills | | Change Station
Active Advisory: Fire Weather Watch

Elev 5334 ft 42.83 °N, 106.31 °W | Updated 6 days ago

Clear
Clear
64 °F
Feels Like 64 °F
N
4
Wind Variable Wind from ESE
Gusts mph

Today
High -- | Low -- °F
--% Chance of Precip.
Yesterday
High -- | Low -- °F
Precip. -- in
Pressure 29.95 in
Visibility 10.0 miles
Clouds Clear
Dew Point 47 °F
Humidity 55%
Rainfall in
Snow Depth Not available.
5:49 AM 8:33 PM
Waning Gibbous, 69% visible
METAR KCPR 250453Z AUTO 09007KT 10SM CLR 22/02 A3015 RMK AO2 SLP140 T02170017
Pressure 29.95 in
Visibility 10.0 miles
Clouds Clear
Dew Point 47 °F
Humidity 55%
Rainfall in
Snow Depth Not available.
5:49 AM 8:33 PM
Waning Gibbous, 69% visible
METAR KCPR 250453Z AUTO 09007KT 10SM CLR 22/02 A3015 RMK AO2 SLP140 T02170017

10-Day Weather Forecast

Almanac

Astronomy

Jul. 24, 2016 Rise Set
Actual Time
Civil Twilight
Nautical Twilight
Astronomical Twilight
Moon
Length of Visible Light
Length of Day
Tomorrow will be .
, % of the Moon is Illuminated

Today's Extremes

State Highs State Lows

Community

WunderPhotos

Upload Photos

1,927,273 photos uploaded!

WunderBlog® & News

Nearby

Air Quality

  Air Quality AQ Index Pollutant
Not available.

Snow Depth

Station Depth Elevation

Earthquake Activity

City Distance Mag. Time & Date
Minimum magnitude displayed is 2.5.

Coastal Water Temperatures

Place Temperature

Stations

Nearby Weather Stations

Station Location Temp. Windchill Dew Point Humidity Wind Precip. Elev Updated Type
                   

Watches & Warnings

Fire Weather Watch
Issued: 1:49 PM MDT Jul. 24, 2016 – National Weather Service

... Fire Weather Watch in effect from Monday afternoon through
Monday evening for strong wind gusts very low relative humidity and
a Haines index of 5 or 6 for fire weather zone 280...

The National Weather Service in Riverton has issued a Fire
Weather Watch... which is in effect from Monday afternoon through
Monday evening.

* Affected area... fire weather zone 280.

* Wind... west to southwest 15 to 20 mph with gusts to 30 mph.

* Humidity... 9 to 14 percent.

* Haines index... 5 to 6.

* Impacts... any fires that develop will likely spread rapidly.
Outdoor burning is not recommended.

Precautionary/preparedness actions...

A Fire Weather Watch means that critical fire weather conditions
are forecast to occur. Listen for later forecasts and possible
red flag warnings.